Check out our new PWSWeather beta!
PWSweather.com
Personal Weather Stations
Station Observations
IONTARIO88
Lincoln, ON L0R

Lincoln, ON L0R

Lat: 43.1763563, Lon: -79.4719525

Elevation: 297

Station Type: Davis Vantage Pro 2 Plus

http://www.beamsvillewx.ca

High Low Average
Temperature 75.0°F23.9°C 56.5°F13.6°C 64.8°F18.2°C
Dew Point 55.9°F13.3°C 49.1°F9.5°C 51.8°F11.0°C
Winds 5.0 mph 8.0 kmh Calm Calm 2.0 mph SW3.2 kmh SW
Wind Gusts 12.0 mph19.3 kmh -- 6.0 mph9.7 kmh
Humidity 82% 44% 64%
Pressure 30.29 in1025.7 mb 30.13 in1020.3 mb -
Precipitation 0.00 in0.0 mm - -
Hour Temp Dew Point Humidity Winds Wind Gusts Pressure Precip Precip Rate Daily Precip Total
12:00 AM 59.7°F15.4°C 49.9°F9.9°C 70% 1.0 mph NW1.6 kmh NW 3.0 mph4.8 kmh 30.13 in1020.3 mb 0.00 in0.0 mm 0.00 in0.0 mm 0.00 in0.0 mm
12:15 AM 59.5°F15.3°C 49.7°F9.8°C 70% 1.0 mph NW1.6 kmh NW 3.0 mph4.8 kmh 30.13 in1020.3 mb 0.00 in0.0 mm 0.00 in0.0 mm 0.00 in0.0 mm
12:30 AM 59.5°F15.3°C 49.7°F9.8°C 70% 1.0 mph NW1.6 kmh NW 3.0 mph4.8 kmh 30.13 in1020.3 mb 0.00 in0.0 mm 0.00 in0.0 mm 0.00 in0.0 mm
12:45 AM 59.5°F15.3°C 49.4°F9.7°C 69% 1.0 mph NW1.6 kmh NW 3.0 mph4.8 kmh 30.13 in1020.3 mb 0.00 in0.0 mm 0.00 in0.0 mm 0.00 in0.0 mm
01:00 AM 59.5°F15.3°C 49.4°F9.7°C 69% Calm Calm 2.0 mph3.2 kmh 30.13 in1020.3 mb 0.00 in0.0 mm 0.00 in0.0 mm 0.00 in0.0 mm
01:15 AM 59.4°F15.2°C 49.6°F9.8°C 70% Calm Calm 2.0 mph3.2 kmh 30.14 in1020.7 mb 0.00 in0.0 mm 0.00 in0.0 mm 0.00 in0.0 mm
01:30 AM 59.2°F15.1°C 49.4°F9.7°C 70% Calm Calm 2.0 mph3.2 kmh 30.14 in1020.7 mb 0.00 in0.0 mm 0.00 in0.0 mm 0.00 in0.0 mm
01:45 AM 58.8°F14.9°C 49.1°F9.5°C 70% Calm Calm 4.0 mph6.4 kmh 30.14 in1020.7 mb 0.00 in0.0 mm 0.00 in0.0 mm 0.00 in0.0 mm
02:00 AM 57.9°F14.4°C 49.3°F9.6°C 73% Calm Calm 3.0 mph4.8 kmh 30.16 in1021.3 mb 0.00 in0.0 mm 0.00 in0.0 mm 0.00 in0.0 mm
02:15 AM 57.4°F14.1°C 49.2°F9.6°C 74% 2.0 mph NW3.2 kmh NW 5.0 mph8.0 kmh 30.16 in1021.3 mb 0.00 in0.0 mm 0.00 in0.0 mm 0.00 in0.0 mm
02:30 AM 57.6°F14.2°C 49.3°F9.6°C 74% 2.0 mph NW3.2 kmh NW 4.0 mph6.4 kmh 30.16 in1021.3 mb 0.00 in0.0 mm 0.00 in0.0 mm 0.00 in0.0 mm
02:45 AM 57.6°F14.2°C 50.0°F10.0°C 76% 1.0 mph NW1.6 kmh NW 4.0 mph6.4 kmh 30.17 in1021.7 mb 0.00 in0.0 mm 0.00 in0.0 mm 0.00 in0.0 mm
03:00 AM 57.6°F14.2°C 51.1°F10.6°C 79% 1.0 mph NW1.6 kmh NW 3.0 mph4.8 kmh 30.18 in1022.0 mb 0.00 in0.0 mm 0.00 in0.0 mm 0.00 in0.0 mm
03:15 AM 57.6°F14.2°C 51.4°F10.8°C 80% Calm Calm 3.0 mph4.8 kmh 30.18 in1022.0 mb 0.00 in0.0 mm 0.00 in0.0 mm 0.00 in0.0 mm
03:30 AM 57.0°F13.9°C 51.2°F10.7°C 81% Calm Calm 2.0 mph3.2 kmh 30.19 in1022.4 mb 0.00 in0.0 mm 0.00 in0.0 mm 0.00 in0.0 mm
03:45 AM 56.7°F13.7°C 51.2°F10.7°C 82% Calm Calm 2.0 mph3.2 kmh 30.19 in1022.4 mb 0.00 in0.0 mm 0.00 in0.0 mm 0.00 in0.0 mm
04:00 AM 56.5°F13.6°C 51.1°F10.6°C 82% 1.0 mph NW1.6 kmh NW 5.0 mph8.0 kmh 30.20 in1022.7 mb 0.00 in0.0 mm 0.00 in0.0 mm 0.00 in0.0 mm
04:15 AM 58.5°F14.7°C 50.6°F10.3°C 75% 4.0 mph N6.4 kmh N 9.0 mph14.5 kmh 30.20 in1022.7 mb 0.00 in0.0 mm 0.00 in0.0 mm 0.00 in0.0 mm
04:30 AM 59.4°F15.2°C 50.3°F10.2°C 72% 3.0 mph NNW4.8 kmh NNW 10.0 mph16.1 kmh 30.21 in1023.0 mb 0.00 in0.0 mm 0.00 in0.0 mm 0.00 in0.0 mm
04:45 AM 59.5°F15.3°C 50.9°F10.5°C 73% 3.0 mph NW4.8 kmh NW 7.0 mph11.3 kmh 30.21 in1023.0 mb 0.00 in0.0 mm 0.00 in0.0 mm 0.00 in0.0 mm
05:00 AM 59.4°F15.2°C 51.1°F10.6°C 74% 4.0 mph NW6.4 kmh NW 7.0 mph11.3 kmh 30.22 in1023.4 mb 0.00 in0.0 mm 0.00 in0.0 mm 0.00 in0.0 mm
05:15 AM 58.8°F14.9°C 50.5°F10.3°C 74% 3.0 mph NW4.8 kmh NW 6.0 mph9.7 kmh 30.22 in1023.4 mb 0.00 in0.0 mm 0.00 in0.0 mm 0.00 in0.0 mm
05:30 AM 58.6°F14.8°C 50.7°F10.4°C 75% 1.0 mph NW1.6 kmh NW 4.0 mph6.4 kmh 30.23 in1023.7 mb 0.00 in0.0 mm 0.00 in0.0 mm 0.00 in0.0 mm
05:45 AM 57.9°F14.4°C 50.4°F10.2°C 76% 1.0 mph NW1.6 kmh NW 4.0 mph6.4 kmh 30.23 in1023.7 mb 0.00 in0.0 mm 0.00 in0.0 mm 0.00 in0.0 mm
06:00 AM 57.9°F14.4°C 50.0°F10.0°C 75% 3.0 mph NW4.8 kmh NW 7.0 mph11.3 kmh 30.24 in1024.0 mb 0.00 in0.0 mm 0.00 in0.0 mm 0.00 in0.0 mm
06:15 AM 58.5°F14.7°C 50.6°F10.3°C 75% 2.0 mph NW3.2 kmh NW 5.0 mph8.0 kmh 30.24 in1024.0 mb 0.00 in0.0 mm 0.00 in0.0 mm 0.00 in0.0 mm
06:30 AM 59.0°F15.0°C 51.4°F10.8°C 76% 2.0 mph NW3.2 kmh NW 6.0 mph9.7 kmh 30.25 in1024.4 mb 0.00 in0.0 mm 0.00 in0.0 mm 0.00 in0.0 mm
06:45 AM 59.4°F15.2°C 52.1°F11.2°C 77% 4.0 mph NW6.4 kmh NW 8.0 mph12.9 kmh 30.25 in1024.4 mb 0.00 in0.0 mm 0.00 in0.0 mm 0.00 in0.0 mm
07:00 AM 60.1°F15.6°C 52.8°F11.6°C 77% 3.0 mph NW4.8 kmh NW 7.0 mph11.3 kmh 30.25 in1024.4 mb 0.00 in0.0 mm 0.00 in0.0 mm 0.00 in0.0 mm
07:15 AM 60.6°F15.9°C 53.7°F12.1°C 78% 4.0 mph NW6.4 kmh NW 8.0 mph12.9 kmh 30.25 in1024.4 mb 0.00 in0.0 mm 0.00 in0.0 mm 0.00 in0.0 mm
07:30 AM 61.2°F16.2°C 53.9°F12.2°C 77% 4.0 mph NW6.4 kmh NW 12.0 mph19.3 kmh 30.25 in1024.4 mb 0.00 in0.0 mm 0.00 in0.0 mm 0.00 in0.0 mm
07:45 AM 61.5°F16.4°C 54.2°F12.3°C 77% 5.0 mph NNW8.0 kmh NNW 10.0 mph16.1 kmh 30.25 in1024.4 mb 0.00 in0.0 mm 0.00 in0.0 mm 0.00 in0.0 mm
08:00 AM 62.1°F16.7°C 54.4°F12.4°C 76% 5.0 mph NNW8.0 kmh NNW 11.0 mph17.7 kmh 30.25 in1024.4 mb 0.00 in0.0 mm 0.00 in0.0 mm 0.00 in0.0 mm
08:15 AM 62.6°F17.0°C 54.9°F12.7°C 76% 4.0 mph NNW6.4 kmh NNW 10.0 mph16.1 kmh 30.26 in1024.7 mb 0.00 in0.0 mm 0.00 in0.0 mm 0.00 in0.0 mm
08:30 AM 63.0°F17.2°C 54.9°F12.7°C 75% 5.0 mph NNW8.0 kmh NNW 10.0 mph16.1 kmh 30.26 in1024.7 mb 0.00 in0.0 mm 0.00 in0.0 mm 0.00 in0.0 mm
08:45 AM 63.5°F17.5°C 55.1°F12.8°C 74% 5.0 mph NNW8.0 kmh NNW 9.0 mph14.5 kmh 30.27 in1025.1 mb 0.00 in0.0 mm 0.00 in0.0 mm 0.00 in0.0 mm
09:00 AM 64.2°F17.9°C 55.8°F13.2°C 74% 4.0 mph NW6.4 kmh NW 11.0 mph17.7 kmh 30.27 in1025.1 mb 0.00 in0.0 mm 0.00 in0.0 mm 0.00 in0.0 mm
09:15 AM 64.8°F18.2°C 55.9°F13.3°C 73% 4.0 mph NNW6.4 kmh NNW 10.0 mph16.1 kmh 30.28 in1025.4 mb 0.00 in0.0 mm 0.00 in0.0 mm 0.00 in0.0 mm
09:30 AM 65.1°F18.4°C 55.5°F13.1°C 71% 4.0 mph NNW6.4 kmh NNW 8.0 mph12.9 kmh 30.28 in1025.4 mb 0.00 in0.0 mm 0.00 in0.0 mm 0.00 in0.0 mm
09:45 AM 65.3°F18.5°C 54.9°F12.7°C 69% 3.0 mph N4.8 kmh N 8.0 mph12.9 kmh 30.28 in1025.4 mb 0.00 in0.0 mm 0.00 in0.0 mm 0.00 in0.0 mm
10:00 AM 65.8°F18.8°C 55.8°F13.2°C 70% 4.0 mph NW6.4 kmh NW 10.0 mph16.1 kmh 30.28 in1025.4 mb 0.00 in0.0 mm 0.00 in0.0 mm 0.00 in0.0 mm
10:15 AM 65.8°F18.8°C 54.6°F12.6°C 67% 4.0 mph N6.4 kmh N 8.0 mph12.9 kmh 30.29 in1025.7 mb 0.00 in0.0 mm 0.00 in0.0 mm 0.00 in0.0 mm
10:30 AM 66.2°F19.0°C 54.9°F12.7°C 67% 4.0 mph NNW6.4 kmh NNW 10.0 mph16.1 kmh 30.29 in1025.7 mb 0.00 in0.0 mm 0.00 in0.0 mm 0.00 in0.0 mm
10:45 AM 66.7°F19.3°C 55.8°F13.2°C 68% 3.0 mph N4.8 kmh N 8.0 mph12.9 kmh 30.29 in1025.7 mb 0.00 in0.0 mm 0.00 in0.0 mm 0.00 in0.0 mm
11:00 AM 66.6°F19.2°C 54.8°F12.7°C 66% 3.0 mph N4.8 kmh N 7.0 mph11.3 kmh 30.29 in1025.7 mb 0.00 in0.0 mm 0.00 in0.0 mm 0.00 in0.0 mm
11:15 AM 67.3°F19.6°C 54.3°F12.4°C 63% 3.0 mph NNW4.8 kmh NNW 8.0 mph12.9 kmh 30.29 in1025.7 mb 0.00 in0.0 mm 0.00 in0.0 mm 0.00 in0.0 mm
11:30 AM 68.0°F20.0°C 54.0°F12.2°C 61% 3.0 mph NNW4.8 kmh NNW 9.0 mph14.5 kmh 30.29 in1025.7 mb 0.00 in0.0 mm 0.00 in0.0 mm 0.00 in0.0 mm
11:45 AM 68.4°F20.2°C 53.0°F11.7°C 58% 3.0 mph NNW4.8 kmh NNW 7.0 mph11.3 kmh 30.28 in1025.4 mb 0.00 in0.0 mm 0.00 in0.0 mm 0.00 in0.0 mm
12:00 PM 68.2°F20.1°C 51.9°F11.1°C 56% 2.0 mph N3.2 kmh N 7.0 mph11.3 kmh 30.28 in1025.4 mb 0.00 in0.0 mm 0.00 in0.0 mm 0.00 in0.0 mm
12:15 PM 68.5°F20.3°C 51.7°F10.9°C 55% 2.0 mph N3.2 kmh N 7.0 mph11.3 kmh 30.28 in1025.4 mb 0.00 in0.0 mm 0.00 in0.0 mm 0.00 in0.0 mm
12:30 PM 69.6°F20.9°C 50.7°F10.4°C 51% 1.0 mph N1.6 kmh N 6.0 mph9.7 kmh 30.28 in1025.4 mb 0.00 in0.0 mm 0.00 in0.0 mm 0.00 in0.0 mm
12:45 PM 70.5°F21.4°C 51.0°F10.6°C 50% 2.0 mph N3.2 kmh N 8.0 mph12.9 kmh 30.28 in1025.4 mb 0.00 in0.0 mm 0.00 in0.0 mm 0.00 in0.0 mm
01:00 PM 71.6°F22.0°C 50.9°F10.5°C 48% 2.0 mph NNE3.2 kmh NNE 6.0 mph9.7 kmh 30.28 in1025.4 mb 0.00 in0.0 mm 0.00 in0.0 mm 0.00 in0.0 mm
01:15 PM 71.1°F21.7°C 49.8°F9.9°C 47% 3.0 mph NNE4.8 kmh NNE 8.0 mph12.9 kmh 30.27 in1025.1 mb 0.00 in0.0 mm 0.00 in0.0 mm 0.00 in0.0 mm
01:30 PM 71.2°F21.8°C 51.6°F10.9°C 50% 2.0 mph NNE3.2 kmh NNE 8.0 mph12.9 kmh 30.27 in1025.1 mb 0.00 in0.0 mm 0.00 in0.0 mm 0.00 in0.0 mm
01:45 PM 73.0°F22.8°C 51.0°F10.6°C 46% 1.0 mph NNE1.6 kmh NNE 4.0 mph6.4 kmh 30.27 in1025.1 mb 0.00 in0.0 mm 0.00 in0.0 mm 0.00 in0.0 mm
02:00 PM 71.4°F21.9°C 50.7°F10.4°C 48% 2.0 mph NNE3.2 kmh NNE 6.0 mph9.7 kmh 30.28 in1025.4 mb 0.00 in0.0 mm 0.00 in0.0 mm 0.00 in0.0 mm
02:15 PM 70.7°F21.5°C 50.0°F10.0°C 48% 2.0 mph NNE3.2 kmh NNE 6.0 mph9.7 kmh 30.27 in1025.1 mb 0.00 in0.0 mm 0.00 in0.0 mm 0.00 in0.0 mm
02:30 PM 71.1°F21.7°C 50.9°F10.5°C 49% 1.0 mph NNE1.6 kmh NNE 6.0 mph9.7 kmh 30.27 in1025.1 mb 0.00 in0.0 mm 0.00 in0.0 mm 0.00 in0.0 mm
02:45 PM 70.5°F21.4°C 50.4°F10.2°C 49% 2.0 mph NNE3.2 kmh NNE 7.0 mph11.3 kmh 30.27 in1025.1 mb 0.00 in0.0 mm 0.00 in0.0 mm 0.00 in0.0 mm
03:00 PM 72.1°F22.3°C 51.4°F10.8°C 48% 1.0 mph NNE1.6 kmh NNE 4.0 mph6.4 kmh 30.26 in1024.7 mb 0.00 in0.0 mm 0.00 in0.0 mm 0.00 in0.0 mm
03:15 PM 73.2°F22.9°C 50.6°F10.3°C 45% 2.0 mph NNE3.2 kmh NNE 6.0 mph9.7 kmh 30.26 in1024.7 mb 0.00 in0.0 mm 0.00 in0.0 mm 0.00 in0.0 mm
03:30 PM 73.8°F23.2°C 51.7°F10.9°C 46% 1.0 mph NNE1.6 kmh NNE 5.0 mph8.0 kmh 30.25 in1024.4 mb 0.00 in0.0 mm 0.00 in0.0 mm 0.00 in0.0 mm
03:45 PM 74.5°F23.6°C 51.7°F10.9°C 45% Calm Calm 4.0 mph6.4 kmh 30.25 in1024.4 mb 0.00 in0.0 mm 0.00 in0.0 mm 0.00 in0.0 mm
04:00 PM 74.8°F23.8°C 51.5°F10.8°C 44% Calm Calm 2.0 mph3.2 kmh 30.25 in1024.4 mb 0.00 in0.0 mm 0.00 in0.0 mm 0.00 in0.0 mm
04:15 PM 74.7°F23.7°C 51.3°F10.7°C 44% 1.0 mph NNE1.6 kmh NNE 3.0 mph4.8 kmh 30.25 in1024.4 mb 0.00 in0.0 mm 0.00 in0.0 mm 0.00 in0.0 mm
04:30 PM 75.0°F23.9°C 51.6°F10.9°C 44% Calm Calm 1.0 mph1.6 kmh 30.25 in1024.4 mb 0.00 in0.0 mm 0.00 in0.0 mm 0.00 in0.0 mm
04:45 PM 73.2°F22.9°C 51.2°F10.7°C 46% 1.0 mph NNE1.6 kmh NNE 5.0 mph8.0 kmh 30.25 in1024.4 mb 0.00 in0.0 mm 0.00 in0.0 mm 0.00 in0.0 mm
05:00 PM 72.7°F22.6°C 51.3°F10.7°C 47% 1.0 mph NNE1.6 kmh NNE 5.0 mph8.0 kmh 30.25 in1024.4 mb 0.00 in0.0 mm 0.00 in0.0 mm 0.00 in0.0 mm
05:15 PM 71.4°F21.9°C 50.7°F10.4°C 48% 1.0 mph NNE1.6 kmh NNE 5.0 mph8.0 kmh 30.25 in1024.4 mb 0.00 in0.0 mm 0.00 in0.0 mm 0.00 in0.0 mm
05:30 PM 71.1°F21.7°C 50.4°F10.2°C 48% Calm Calm 3.0 mph4.8 kmh 30.25 in1024.4 mb 0.00 in0.0 mm 0.00 in0.0 mm 0.00 in0.0 mm
05:45 PM 70.7°F21.5°C 50.6°F10.3°C 49% Calm Calm 3.0 mph4.8 kmh 30.25 in1024.4 mb 0.00 in0.0 mm 0.00 in0.0 mm 0.00 in0.0 mm
06:00 PM 70.2°F21.2°C 51.7°F10.9°C 52% Calm Calm 2.0 mph3.2 kmh 30.25 in1024.4 mb 0.00 in0.0 mm 0.00 in0.0 mm 0.00 in0.0 mm
06:15 PM 69.8°F21.0°C 51.9°F11.1°C 53% Calm Calm -- 30.25 in1024.4 mb 0.00 in0.0 mm 0.00 in0.0 mm 0.00 in0.0 mm
06:30 PM 69.1°F20.6°C 51.7°F10.9°C 54% Calm Calm -- 30.25 in1024.4 mb 0.00 in0.0 mm 0.00 in0.0 mm 0.00 in0.0 mm
06:45 PM 68.2°F20.1°C 52.4°F11.3°C 57% Calm Calm -- 30.25 in1024.4 mb 0.00 in0.0 mm 0.00 in0.0 mm 0.00 in0.0 mm
07:00 PM 67.3°F19.6°C 52.0°F11.1°C 58% Calm Calm -- 30.25 in1024.4 mb 0.00 in0.0 mm 0.00 in0.0 mm 0.00 in0.0 mm
07:15 PM 66.7°F19.3°C 52.4°F11.3°C 60% Calm Calm -- 30.25 in1024.4 mb 0.00 in0.0 mm 0.00 in0.0 mm 0.00 in0.0 mm
07:30 PM 66.4°F19.1°C 53.0°F11.7°C 62% Calm Calm -- 30.25 in1024.4 mb 0.00 in0.0 mm 0.00 in0.0 mm 0.00 in0.0 mm
07:45 PM 65.7°F18.7°C 52.7°F11.5°C 63% Calm Calm -- 30.25 in1024.4 mb 0.00 in0.0 mm 0.00 in0.0 mm 0.00 in0.0 mm
08:00 PM 65.5°F18.6°C 52.5°F11.4°C 63% Calm Calm -- 30.25 in1024.4 mb 0.00 in0.0 mm 0.00 in0.0 mm 0.00 in0.0 mm
08:15 PM 64.9°F18.3°C 52.0°F11.1°C 63% Calm Calm -- 30.25 in1024.4 mb 0.00 in0.0 mm 0.00 in0.0 mm 0.00 in0.0 mm
08:30 PM 64.6°F18.1°C 51.7°F10.9°C 63% Calm Calm -- 30.26 in1024.7 mb 0.00 in0.0 mm 0.00 in0.0 mm 0.00 in0.0 mm
08:45 PM 64.0°F17.8°C 51.2°F10.7°C 63% Calm Calm -- 30.27 in1025.1 mb 0.00 in0.0 mm 0.00 in0.0 mm 0.00 in0.0 mm
09:00 PM 63.3°F17.4°C 50.1°F10.1°C 62% Calm Calm -- 30.26 in1024.7 mb 0.00 in0.0 mm 0.00 in0.0 mm 0.00 in0.0 mm
09:15 PM 63.3°F17.4°C 50.1°F10.1°C 62% Calm Calm -- 30.26 in1024.7 mb 0.00 in0.0 mm 0.00 in0.0 mm 0.00 in0.0 mm
09:30 PM 63.1°F17.3°C 50.3°F10.2°C 63% Calm Calm -- 30.25 in1024.4 mb 0.00 in0.0 mm 0.00 in0.0 mm 0.00 in0.0 mm
09:45 PM 62.4°F16.9°C 50.5°F10.3°C 65% Calm Calm -- 30.25 in1024.4 mb 0.00 in0.0 mm 0.00 in0.0 mm 0.00 in0.0 mm
10:00 PM 62.1°F16.7°C 51.0°F10.6°C 67% Calm Calm -- 30.25 in1024.4 mb 0.00 in0.0 mm 0.00 in0.0 mm 0.00 in0.0 mm
10:15 PM 61.9°F16.6°C 50.4°F10.2°C 66% Calm Calm -- 30.25 in1024.4 mb 0.00 in0.0 mm 0.00 in0.0 mm 0.00 in0.0 mm
10:30 PM 61.7°F16.5°C 50.2°F10.1°C 66% Calm Calm -- 30.25 in1024.4 mb 0.00 in0.0 mm 0.00 in0.0 mm 0.00 in0.0 mm
10:45 PM 61.9°F16.6°C 50.0°F10.0°C 65% Calm Calm -- 30.25 in1024.4 mb 0.00 in0.0 mm 0.00 in0.0 mm 0.00 in0.0 mm
11:00 PM 61.5°F16.4°C 49.6°F9.8°C 65% Calm Calm -- 30.25 in1024.4 mb 0.00 in0.0 mm 0.00 in0.0 mm 0.00 in0.0 mm
11:15 PM 60.8°F16.0°C 49.8°F9.9°C 67% Calm Calm -- 30.25 in1024.4 mb 0.00 in0.0 mm 0.00 in0.0 mm 0.00 in0.0 mm
11:30 PM 61.2°F16.2°C 49.3°F9.6°C 65% Calm Calm -- 30.25 in1024.4 mb 0.00 in0.0 mm 0.00 in0.0 mm 0.00 in0.0 mm
11:45 PM 61.0°F16.1°C 49.5°F9.7°C 66% Calm Calm -- 30.25 in1024.4 mb 0.00 in0.0 mm 0.00 in0.0 mm 0.00 in0.0 mm